createdAt,value
2019-02-16T00:01:24.412Z,4.33
2019-02-16T00:03:55.159Z,4.31
2019-02-16T00:06:24.872Z,4.42
2019-02-16T00:08:54.646Z,4.43
2019-02-16T00:11:24.365Z,4.51
2019-02-16T00:13:55.093Z,4.49
2019-02-16T00:16:24.528Z,4.43
2019-02-16T00:18:56.022Z,4.38
2019-02-16T00:21:26.334Z,4.41
2019-02-16T00:23:56.381Z,4.20
2019-02-16T00:26:27.182Z,4.12
2019-02-16T00:28:57.501Z,4.07
2019-02-16T00:31:26.786Z,4.17
2019-02-16T00:33:56.591Z,4.14
2019-02-16T00:36:25.763Z,4.16
2019-02-16T00:38:54.957Z,4.20
2019-02-16T00:41:24.233Z,4.15
2019-02-16T00:43:53.694Z,4.16
2019-02-16T00:46:23.434Z,4.16
2019-02-16T00:48:53.127Z,3.98
2019-02-16T00:51:23.710Z,4.04
2019-02-16T00:53:53.459Z,3.97
2019-02-16T00:56:24.464Z,4.05
2019-02-16T00:58:54.484Z,4.08
2019-02-16T01:01:23.686Z,4.00
2019-02-16T01:03:52.848Z,3.89
2019-02-16T01:06:22.313Z,3.79
2019-02-16T01:08:51.481Z,3.70
2019-02-16T01:11:21.231Z,3.64
2019-02-16T01:13:52.712Z,3.65
2019-02-16T01:16:22.183Z,3.55
2019-02-16T01:18:51.913Z,3.57
2019-02-16T01:21:24.137Z,3.64
2019-02-16T01:23:53.878Z,3.60
2019-02-16T01:26:23.572Z,3.58
2019-02-16T01:28:53.725Z,3.58
2019-02-16T01:31:25.365Z,3.52
2019-02-16T01:33:54.550Z,3.58
2019-02-16T01:36:26.393Z,3.64
2019-02-16T01:38:56.190Z,3.68
2019-02-16T01:41:28.628Z,3.73
2019-02-16T01:44:00.042Z,3.73
2019-02-16T01:46:30.154Z,3.64
2019-02-16T01:48:59.603Z,3.61
2019-02-16T01:51:32.626Z,3.55
2019-02-16T01:54:03.389Z,3.50
2019-02-16T01:56:34.393Z,3.49
2019-02-16T01:59:03.549Z,3.51
2019-02-16T02:01:33.615Z,3.54
2019-02-16T02:04:03.602Z,3.55
2019-02-16T02:06:33.940Z,3.50
2019-02-16T02:09:05.275Z,3.47
2019-02-16T02:11:34.847Z,3.50
2019-02-16T02:14:07.130Z,3.42
2019-02-16T02:16:38.489Z,3.36
2019-02-16T02:19:08.104Z,2.98
2019-02-16T02:21:41.138Z,3.05
2019-02-16T02:24:09.637Z,3.16
2019-02-16T02:26:39.885Z,3.19
2019-02-16T02:29:09.705Z,3.35
2019-02-16T02:31:40.496Z,3.33
2019-02-16T02:34:12.539Z,3.42
2019-02-16T02:36:49.896Z,3.48
2019-02-16T02:39:19.721Z,3.30
2019-02-16T02:41:48.897Z,3.37
2019-02-16T02:44:22.355Z,3.28
2019-02-16T02:46:52.905Z,3.34
2019-02-16T02:49:22.467Z,3.34
2019-02-16T02:51:57.145Z,3.35
2019-02-16T02:54:26.890Z,3.24
2019-02-16T02:56:57.147Z,3.08
2019-02-16T02:59:30.046Z,3.01
2019-02-16T03:02:00.003Z,2.94
2019-02-16T03:04:29.553Z,2.79
2019-02-16T03:07:01.996Z,2.67
2019-02-16T03:09:35.330Z,2.69
2019-02-16T03:12:05.718Z,2.72
2019-02-16T03:14:38.262Z,2.72
2019-02-16T03:17:08.760Z,2.44
2019-02-16T03:19:39.240Z,2.31
2019-02-16T03:22:09.488Z,2.14
2019-02-16T03:24:38.841Z,2.01
2019-02-16T03:27:33.822Z,2.02
2019-02-16T03:30:26.878Z,1.92
2019-02-16T03:33:42.946Z,1.80
2019-02-16T03:36:57.714Z,1.75
2019-02-16T03:39:33.130Z,1.75
2019-02-16T03:42:02.892Z,1.71
2019-02-16T03:44:34.297Z,1.76
2019-02-16T03:47:03.845Z,1.67
2019-02-16T03:49:34.171Z,1.73
2019-02-16T03:52:13.284Z,1.77
2019-02-16T03:54:36.875Z,1.85
2019-02-16T03:57:06.351Z,1.77
2019-02-16T03:59:35.807Z,1.85
2019-02-16T04:02:08.758Z,1.81
2019-02-16T04:04:40.704Z,1.83
2019-02-16T04:07:10.151Z,1.84
2019-02-16T04:09:39.893Z,1.88
2019-02-16T04:12:11.831Z,1.84
2019-02-16T04:14:41.792Z,1.92
2019-02-16T04:17:16.697Z,1.82
2019-02-16T04:19:47.633Z,1.88
2019-02-16T04:22:24.539Z,1.86
2019-02-16T04:24:49.874Z,1.51
2019-02-16T04:27:20.318Z,1.51
2019-02-16T04:29:53.434Z,1.46
2019-02-16T04:32:23.799Z,1.50
2019-02-16T04:34:54.141Z,1.53
2019-02-16T04:37:27.032Z,1.58
2019-02-16T04:39:57.539Z,1.42
2019-02-16T04:42:30.866Z,1.37
2019-02-16T04:45:05.392Z,1.11
2019-02-16T04:47:35.369Z,1.20
2019-02-16T04:50:04.837Z,1.25
2019-02-16T04:52:35.258Z,1.15
2019-02-16T04:55:09.171Z,1.17
2019-02-16T04:57:38.373Z,1.17
2019-02-16T05:00:09.958Z,1.18
2019-02-16T05:02:39.679Z,1.24
2019-02-16T05:05:11.070Z,1.32
2019-02-16T05:07:40.539Z,1.44
2019-02-16T05:10:12.615Z,1.39
2019-02-16T05:12:42.823Z,1.48
2019-02-16T05:15:16.115Z,1.55
2019-02-16T05:17:47.165Z,1.60
2019-02-16T05:20:16.351Z,1.60
2019-02-16T05:22:47.782Z,1.60
2019-02-16T05:25:17.665Z,1.72
2019-02-16T05:27:48.459Z,1.85
2019-02-16T05:30:19.944Z,1.77
2019-02-16T05:32:52.960Z,1.74
2019-02-16T05:35:25.397Z,1.69
2019-02-16T05:37:58.259Z,1.85
2019-02-16T05:40:27.783Z,1.81
2019-02-16T05:42:58.416Z,1.71
2019-02-16T05:45:28.715Z,1.67
2019-02-16T05:47:58.192Z,1.60
2019-02-16T05:50:28.839Z,1.66
2019-02-16T05:53:00.328Z,1.72
2019-02-16T05:55:29.487Z,1.95
2019-02-16T05:57:58.990Z,2.01
2019-02-16T06:00:30.080Z,2.17
2019-02-16T06:03:00.613Z,2.20
2019-02-16T06:05:32.909Z,2.10
2019-02-16T06:08:04.214Z,2.00
2019-02-16T06:10:33.396Z,1.92
2019-02-16T06:13:03.173Z,1.92
2019-02-16T06:15:35.389Z,1.75
2019-02-16T06:18:08.088Z,1.56
2019-02-16T06:20:37.594Z,1.38
2019-02-16T06:23:07.053Z,1.47
2019-02-16T06:25:38.022Z,1.34
2019-02-16T06:28:11.461Z,1.34
2019-02-16T06:30:48.566Z,1.28
2019-02-16T06:33:17.792Z,1.22
2019-02-16T06:36:06.617Z,1.07
2019-02-16T06:38:36.088Z,0.99
2019-02-16T06:41:06.212Z,0.83
2019-02-16T06:43:37.452Z,1.02
2019-02-16T06:46:09.167Z,0.99
2019-02-16T06:48:39.111Z,1.21
2019-02-16T06:51:09.068Z,1.11
2019-02-16T06:53:42.832Z,1.19
2019-02-16T06:56:38.100Z,1.05
2019-02-16T06:59:08.767Z,0.83
2019-02-16T07:01:39.456Z,0.72
2019-02-16T07:04:09.977Z,0.85
2019-02-16T07:06:43.756Z,0.91
2019-02-16T07:09:16.442Z,1.11
2019-02-16T07:11:46.192Z,1.21
2019-02-16T07:14:16.245Z,1.16
2019-02-16T07:17:12.573Z,1.19
2019-02-16T07:19:50.744Z,0.94
2019-02-16T07:22:24.675Z,0.99
2019-02-16T07:24:56.977Z,1.23
2019-02-16T07:27:27.034Z,1.35
2019-02-16T07:29:58.471Z,1.63
2019-02-16T07:32:29.289Z,1.83
2019-02-16T07:35:02.602Z,2.08
2019-02-16T07:37:32.142Z,2.22
2019-02-16T07:40:03.004Z,2.30
2019-02-16T07:42:49.395Z,2.15
2019-02-16T07:45:39.010Z,2.18
2019-02-16T07:48:17.415Z,2.24
2019-02-16T07:50:56.961Z,2.37
2019-02-16T07:53:44.237Z,2.50
2019-02-16T07:56:30.181Z,2.61
2019-02-16T07:59:26.701Z,2.57
2019-02-16T08:02:18.043Z,2.51
2019-02-16T08:05:00.554Z,2.53
2019-02-16T08:07:55.749Z,2.64
2019-02-16T08:11:00.222Z,2.87
2019-02-16T08:13:39.270Z,3.05
2019-02-16T08:16:34.321Z,3.07
2019-02-16T08:19:30.365Z,3.43
2019-02-16T08:22:30.687Z,3.66
2019-02-16T08:25:32.610Z,3.83
2019-02-16T08:28:24.975Z,3.95
2019-02-16T08:31:34.972Z,4.06
2019-02-16T08:34:23.481Z,4.07
2019-02-16T08:37:17.862Z,4.18
2019-02-16T08:40:14.505Z,4.16
2019-02-16T08:43:24.345Z,4.20
2019-02-16T08:46:11.200Z,4.31
2019-02-16T08:48:46.566Z,4.24
2019-02-16T08:51:22.179Z,4.45
2019-02-16T08:54:19.121Z,4.55
2019-02-16T08:57:07.555Z,4.67
2019-02-16T08:59:47.368Z,4.69
2019-02-16T09:02:22.578Z,4.90
2019-02-16T09:04:59.299Z,5.08
2019-02-16T09:07:37.723Z,5.15
2019-02-16T09:10:24.569Z,5.35
2019-02-16T09:13:11.468Z,5.51
2019-02-16T09:16:05.298Z,5.55
2019-02-16T09:18:49.137Z,5.74
2019-02-16T09:21:29.656Z,5.73
2019-02-16T09:24:20.688Z,5.91
2019-02-16T09:27:01.548Z,6.12
2019-02-16T09:29:44.417Z,6.26
2019-02-16T09:32:48.100Z,6.27
2019-02-16T09:35:32.344Z,6.45
2019-02-16T09:38:12.193Z,6.41
2019-02-16T09:40:59.339Z,6.74
2019-02-16T09:43:39.927Z,6.43
2019-02-16T09:46:31.026Z,6.53
2019-02-16T09:49:23.325Z,6.77
2019-02-16T09:52:06.012Z,7.03
2019-02-16T09:54:54.258Z,7.21
2019-02-16T09:57:54.210Z,7.26
2019-02-16T10:00:41.641Z,7.40
2019-02-16T10:03:31.478Z,7.36
2019-02-16T10:06:26.073Z,7.27
2019-02-16T10:09:29.065Z,7.62
2019-02-16T10:12:12.187Z,7.27
2019-02-16T10:15:07.110Z,7.61
2019-02-16T10:18:01.956Z,7.91
2019-02-16T10:20:48.099Z,8.18
2019-02-16T10:23:39.168Z,8.27
2019-02-16T10:26:42.805Z,7.99
2019-02-16T10:29:27.674Z,8.25
2019-02-16T10:32:27.916Z,8.20
2019-02-16T10:35:16.009Z,8.45
2019-02-16T10:38:24.459Z,8.73
2019-02-16T10:41:20.412Z,8.91
2019-02-16T10:43:58.275Z,9.07
2019-02-16T10:46:45.484Z,8.97
2019-02-16T10:49:29.235Z,9.09
2019-02-16T10:52:20.340Z,9.51
2019-02-16T10:55:30.061Z,9.56
2019-02-16T10:58:12.016Z,9.48
2019-02-16T11:00:50.985Z,9.01
2019-02-16T11:03:42.581Z,9.49
2019-02-16T11:06:30.769Z,9.37
2019-02-16T11:09:18.913Z,9.45
2019-02-16T11:12:25.056Z,9.78
2019-02-16T11:15:12.828Z,9.88
2019-02-16T11:17:50.902Z,9.96
2019-02-16T11:20:37.508Z,9.99
2019-02-16T11:23:24.021Z,10.01
2019-02-16T11:26:02.356Z,10.18
2019-02-16T11:29:11.235Z,9.91
2019-02-16T11:32:11.179Z,10.00
2019-02-16T11:35:18.596Z,10.47
2019-02-16T11:38:27.226Z,10.65
2019-02-16T11:41:18.823Z,11.22
2019-02-16T11:44:08.393Z,11.09
2019-02-16T11:46:56.511Z,10.60
2019-02-16T11:49:54.638Z,10.85
2019-02-16T11:52:45.894Z,10.67
2019-02-16T11:55:52.132Z,11.00
2019-02-16T11:58:40.664Z,11.37
2019-02-16T12:01:28.486Z,11.14
2019-02-16T12:04:13.643Z,11.12
2019-02-16T12:07:06.196Z,10.98
2019-02-16T12:09:45.233Z,10.96
2019-02-16T12:12:42.621Z,11.33
2019-02-16T12:15:47.091Z,11.36
2019-02-16T12:18:43.520Z,11.65
2019-02-16T12:21:31.749Z,12.17
2019-02-16T12:24:19.633Z,12.11
2019-02-16T12:27:15.036Z,12.20
2019-02-16T12:30:04.126Z,12.18
2019-02-16T12:32:59.685Z,12.31
2019-02-16T12:35:46.576Z,12.39
2019-02-16T12:38:47.532Z,12.37
2019-02-16T12:41:43.063Z,12.53
2019-02-16T12:44:34.764Z,13.10
2019-02-16T12:47:39.594Z,13.10
2019-02-16T12:50:30.129Z,12.69
2019-02-16T12:53:36.349Z,12.51
2019-02-16T12:56:28.278Z,12.54
2019-02-16T12:59:33.355Z,12.59
2019-02-16T13:02:24.721Z,12.50
2019-02-16T13:05:09.120Z,13.15
2019-02-16T13:07:46.508Z,13.30
2019-02-16T13:10:47.243Z,13.53
2019-02-16T13:13:26.818Z,13.10
2019-02-16T13:16:13.674Z,13.64
2019-02-16T13:18:59.624Z,13.96
2019-02-16T13:21:47.807Z,14.19
2019-02-16T13:24:38.295Z,14.53
2019-02-16T13:27:25.333Z,14.91
2019-02-16T13:30:20.373Z,13.95
2019-02-16T13:33:18.569Z,14.83
2019-02-16T13:36:21.675Z,15.35
2019-02-16T13:39:01.934Z,14.37
2019-02-16T13:41:52.570Z,15.30
2019-02-16T13:44:28.924Z,15.67
2019-02-16T13:47:14.185Z,15.82
2019-02-16T13:50:00.604Z,16.20
2019-02-16T13:52:58.410Z,16.17
2019-02-16T13:55:43.834Z,16.66
2019-02-16T13:58:39.067Z,15.91
2019-02-16T14:01:26.728Z,15.39
2019-02-16T14:04:33.195Z,15.61
2019-02-16T14:07:14.870Z,15.92
2019-02-16T14:09:53.015Z,16.00
2019-02-16T14:12:45.110Z,15.93
2019-02-16T14:15:21.880Z,16.16
2019-02-16T14:17:53.196Z,16.02
2019-02-16T14:20:24.114Z,15.72
2019-02-16T14:22:55.632Z,16.67
2019-02-16T14:25:43.757Z,17.08
2019-02-16T14:28:27.798Z,17.02
2019-02-16T14:31:03.823Z,17.46
2019-02-16T14:33:35.584Z,17.78
2019-02-16T14:36:05.168Z,17.59
2019-02-16T14:39:00.298Z,17.97
2019-02-16T14:41:30.462Z,17.10
2019-02-16T14:44:04.561Z,16.87
2019-02-16T14:46:33.755Z,17.23
2019-02-16T14:49:02.958Z,17.37
2019-02-16T14:51:32.162Z,18.16
2019-02-16T14:54:03.012Z,18.29
2019-02-16T14:56:32.177Z,18.54
2019-02-16T14:59:02.197Z,18.63
2019-02-16T15:01:31.705Z,19.06
2019-02-16T15:04:08.225Z,19.22
2019-02-16T15:06:41.764Z,19.24
2019-02-16T15:09:13.975Z,18.69
2019-02-16T15:11:47.102Z,19.05
2019-02-16T15:14:17.371Z,18.56
2019-02-16T15:16:47.817Z,18.79
2019-02-16T15:19:17.918Z,18.39
2019-02-16T15:21:48.868Z,19.15
2019-02-16T15:24:18.401Z,18.82
2019-02-16T15:26:47.583Z,19.43
2019-02-16T15:29:22.177Z,18.65
2019-02-16T15:31:52.974Z,18.34
2019-02-16T15:34:25.544Z,18.79
2019-02-16T15:36:55.062Z,18.24
2019-02-16T15:39:25.048Z,18.16
2019-02-16T15:41:57.817Z,18.04
2019-02-16T15:44:27.681Z,18.39
2019-02-16T15:46:57.713Z,18.80
2019-02-16T15:49:30.126Z,18.73
2019-02-16T15:52:00.706Z,18.58
2019-02-16T15:54:36.443Z,18.79
2019-02-16T15:57:09.945Z,18.75
2019-02-16T15:59:39.807Z,18.97
2019-02-16T16:02:10.150Z,18.15
2019-02-16T16:04:41.211Z,18.24
2019-02-16T16:07:15.310Z,18.14
2019-02-16T16:10:02.533Z,18.69
2019-02-16T16:12:49.343Z,18.18
2019-02-16T16:15:44.661Z,17.28
2019-02-16T16:18:38.351Z,17.38
2019-02-16T16:21:21.980Z,17.07
2019-02-16T16:24:09.940Z,17.02
2019-02-16T16:27:05.334Z,16.38
2019-02-16T16:30:03.015Z,15.75
2019-02-16T16:32:55.676Z,15.21
2019-02-16T16:35:36.912Z,14.67
2019-02-16T16:38:23.661Z,14.45
2019-02-16T16:41:17.597Z,14.09
2019-02-16T16:44:08.111Z,13.85
2019-02-16T16:46:57.184Z,13.62
2019-02-16T16:49:39.147Z,13.26
2019-02-16T16:52:20.279Z,12.99
2019-02-16T16:55:12.068Z,12.81
2019-02-16T16:58:06.856Z,12.78
2019-02-16T17:00:47.499Z,12.69
2019-02-16T17:03:44.521Z,12.50
2019-02-16T17:06:21.096Z,12.31
2019-02-16T17:09:12.932Z,12.23
2019-02-16T17:12:01.615Z,12.07
2019-02-16T17:14:50.255Z,11.94
2019-02-16T17:17:47.937Z,11.67
2019-02-16T17:20:46.436Z,11.63
2019-02-16T17:23:33.026Z,11.42
2019-02-16T17:26:19.928Z,11.32
2019-02-16T17:29:26.327Z,11.26
2019-02-16T17:32:28.169Z,11.32
2019-02-16T17:35:32.034Z,11.37
2019-02-16T17:38:23.855Z,11.17
2019-02-16T17:41:05.611Z,11.15
2019-02-16T17:44:03.781Z,10.92
2019-02-16T17:46:51.392Z,10.82
2019-02-16T17:49:43.497Z,10.53
2019-02-16T17:52:30.407Z,10.27
2019-02-16T17:55:21.783Z,10.17
2019-02-16T17:58:11.328Z,10.19
2019-02-16T18:01:06.771Z,10.22
2019-02-16T18:04:00.494Z,10.19
2019-02-16T18:07:00.164Z,10.04
2019-02-16T18:09:48.902Z,9.88
2019-02-16T18:12:34.046Z,9.73
2019-02-16T18:15:18.372Z,9.71
2019-02-16T18:17:56.144Z,9.52
2019-02-16T18:20:53.495Z,9.43
2019-02-16T18:23:42.410Z,9.52
2019-02-16T18:26:44.653Z,9.59
2019-02-16T18:29:45.143Z,9.55
2019-02-16T18:32:33.951Z,9.47
2019-02-16T18:35:28.894Z,9.34
2019-02-16T18:38:08.483Z,9.18
2019-02-16T18:40:57.298Z,9.11
2019-02-16T18:43:51.097Z,8.99
2019-02-16T18:46:49.568Z,9.02
2019-02-16T18:49:47.265Z,9.10
2019-02-16T18:52:40.336Z,9.11
2019-02-16T18:55:32.585Z,9.04
2019-02-16T18:58:22.589Z,9.06
2019-02-16T19:01:22.949Z,8.97
2019-02-16T19:04:10.481Z,8.82
2019-02-16T19:06:51.734Z,8.75
2019-02-16T19:09:38.844Z,8.72
2019-02-16T19:12:21.753Z,8.68
2019-02-16T19:15:00.348Z,8.64
2019-02-16T19:17:51.392Z,8.50
2019-02-16T19:20:39.480Z,8.45
2019-02-16T19:23:23.396Z,8.45
2019-02-16T19:25:59.634Z,8.24
2019-02-16T19:28:46.530Z,8.30
2019-02-16T19:31:35.219Z,8.11
2019-02-16T19:34:31.620Z,7.97
2019-02-16T19:37:09.201Z,7.86
2019-02-16T19:39:56.746Z,7.84
2019-02-16T19:42:31.794Z,7.74
2019-02-16T19:45:27.642Z,7.50
2019-02-16T19:48:16.903Z,7.40
2019-02-16T19:50:58.062Z,7.30
2019-02-16T19:53:33.227Z,7.31
2019-02-16T19:56:12.473Z,7.39
2019-02-16T19:59:10.806Z,7.39
2019-02-16T20:02:05.071Z,7.46
2019-02-16T20:05:00.294Z,7.41
2019-02-16T20:07:41.041Z,7.23
2019-02-16T20:10:37.821Z,7.17
2019-02-16T20:13:35.158Z,7.08
2019-02-16T20:16:23.689Z,7.07
2019-02-16T20:19:16.516Z,7.06
2019-02-16T20:22:03.579Z,6.99
2019-02-16T20:24:53.969Z,6.77
2019-02-16T20:27:42.960Z,6.76
2019-02-16T20:30:30.084Z,6.70
2019-02-16T20:33:19.261Z,6.69
2019-02-16T20:36:15.763Z,6.63
2019-02-16T20:39:17.436Z,6.47
2019-02-16T20:42:04.379Z,6.45
2019-02-16T20:44:44.941Z,6.48
2019-02-16T20:47:43.442Z,6.51
2019-02-16T20:50:35.680Z,6.55
2019-02-16T20:53:34.961Z,6.76
2019-02-16T20:56:23.640Z,6.57
2019-02-16T20:59:10.877Z,6.34
2019-02-16T21:01:55.534Z,6.42
2019-02-16T21:05:04.375Z,6.28
2019-02-16T21:08:02.097Z,6.26
2019-02-16T21:10:48.018Z,6.05
2019-02-16T21:13:42.973Z,6.00
2019-02-16T21:16:23.959Z,5.94
2019-02-16T21:19:19.015Z,5.97
2019-02-16T21:22:08.214Z,6.08
2019-02-16T21:24:46.221Z,6.07
2019-02-16T21:27:29.698Z,6.08
2019-02-16T21:30:24.651Z,5.96
2019-02-16T21:33:17.527Z,5.74
2019-02-16T21:36:05.142Z,5.60
2019-02-16T21:39:02.905Z,5.38
2019-02-16T21:41:37.765Z,5.49
2019-02-16T21:44:34.008Z,5.45
2019-02-16T21:47:30.834Z,5.49
2019-02-16T21:50:12.441Z,5.47
2019-02-16T21:53:06.762Z,5.25
2019-02-16T21:55:54.423Z,5.26
2019-02-16T21:58:31.661Z,5.32
2019-02-16T22:01:17.110Z,5.26
2019-02-16T22:03:53.328Z,5.28
2019-02-16T22:06:40.254Z,5.29
2019-02-16T22:09:45.243Z,5.36
2019-02-16T22:12:37.041Z,5.49
2019-02-16T22:15:06.996Z,5.49
2019-02-16T22:17:39.180Z,5.40
2019-02-16T22:20:10.678Z,5.31
2019-02-16T22:22:41.765Z,5.29
2019-02-16T22:25:11.887Z,5.31
2019-02-16T22:27:42.756Z,5.21
2019-02-16T22:30:12.210Z,4.94
2019-02-16T22:32:41.726Z,4.98
2019-02-16T22:35:16.092Z,5.05
2019-02-16T22:37:45.867Z,4.81
2019-02-16T22:40:15.267Z,4.76
2019-02-16T22:42:45.374Z,4.59
2019-02-16T22:45:14.539Z,4.51
2019-02-16T22:47:44.334Z,4.44
2019-02-16T22:50:14.322Z,4.49
2019-02-16T22:52:44.577Z,4.47
2019-02-16T22:55:14.024Z,4.45
2019-02-16T22:57:43.432Z,4.34
2019-02-16T23:00:19.080Z,4.33
2019-02-16T23:02:51.520Z,4.27
2019-02-16T23:05:21.021Z,4.27
2019-02-16T23:07:50.290Z,4.36
2019-02-16T23:10:19.473Z,4.43
2019-02-16T23:12:48.801Z,4.42
2019-02-16T23:15:18.852Z,4.34
2019-02-16T23:17:49.858Z,4.34
2019-02-16T23:20:20.121Z,4.30
2019-02-16T23:22:50.829Z,4.33
2019-02-16T23:25:20.651Z,4.37
2019-02-16T23:27:49.961Z,4.34
2019-02-16T23:30:22.578Z,4.33
2019-02-16T23:32:51.778Z,4.32
2019-02-16T23:35:21.826Z,4.30
2019-02-16T23:37:54.198Z,4.23
2019-02-16T23:40:23.380Z,4.17
2019-02-16T23:42:56.930Z,4.13
2019-02-16T23:45:26.298Z,4.05
2019-02-16T23:47:57.913Z,4.03
2019-02-16T23:50:27.079Z,3.96
2019-02-16T23:53:00.290Z,4.00
2019-02-16T23:55:30.983Z,3.93
2019-02-16T23:58:02.261Z,3.95
